sensor_id;sensor_type;location;lat;lon;timestamp;temperature;humidity
22069;DHT22;13887;57.196;-2.100;2022-08-04T00:00:04;16.87;72.53
22069;DHT22;13887;57.196;-2.100;2022-08-04T00:09:02;16.81;72.42
22069;DHT22;13887;57.196;-2.100;2022-08-04T00:11:31;16.78;72.50
22069;DHT22;13887;57.196;-2.100;2022-08-04T00:14:06;16.74;72.61
22069;DHT22;13887;57.196;-2.100;2022-08-04T00:16:36;16.72;72.81
22069;DHT22;13887;57.196;-2.100;2022-08-04T00:19:16;16.72;72.64
22069;DHT22;13887;57.196;-2.100;2022-08-04T00:21:47;16.76;72.47
22069;DHT22;13887;57.196;-2.100;2022-08-04T00:24:17;16.72;72.47
22069;DHT22;13887;57.196;-2.100;2022-08-04T00:26:46;16.74;72.34
22069;DHT22;13887;57.196;-2.100;2022-08-04T00:29:13;16.70;72.57
22069;DHT22;13887;57.196;-2.100;2022-08-04T00:31:41;16.71;72.63
22069;DHT22;13887;57.196;-2.100;2022-08-04T00:34:25;16.72;72.54
22069;DHT22;13887;57.196;-2.100;2022-08-04T00:36:52;16.71;72.62
22069;DHT22;13887;57.196;-2.100;2022-08-04T00:39:19;16.69;72.63
22069;DHT22;13887;57.196;-2.100;2022-08-04T00:50:24;16.67;72.41
22069;DHT22;13887;57.196;-2.100;2022-08-04T01:00:34;16.63;72.47
22069;DHT22;13887;57.196;-2.100;2022-08-04T01:05:36;16.59;72.58
22069;DHT22;13887;57.196;-2.100;2022-08-04T01:16:09;16.60;72.38
22069;DHT22;13887;57.196;-2.100;2022-08-04T01:18:56;16.57;72.38
22069;DHT22;13887;57.196;-2.100;2022-08-04T01:29:49;16.58;72.23
22069;DHT22;13887;57.196;-2.100;2022-08-04T01:32:31;16.58;72.22
22069;DHT22;13887;57.196;-2.100;2022-08-04T01:35:07;16.58;72.00
22069;DHT22;13887;57.196;-2.100;2022-08-04T01:40:20;16.60;71.87
22069;DHT22;13887;57.196;-2.100;2022-08-04T01:42:48;16.60;72.00
22069;DHT22;13887;57.196;-2.100;2022-08-04T01:45:17;16.60;72.05
22069;DHT22;13887;57.196;-2.100;2022-08-04T01:47:52;16.61;71.83
22069;DHT22;13887;57.196;-2.100;2022-08-04T01:50:19;16.60;71.87
22069;DHT22;13887;57.196;-2.100;2022-08-04T01:52:47;16.62;71.77
22069;DHT22;13887;57.196;-2.100;2022-08-04T01:55:17;16.60;71.87
22069;DHT22;13887;57.196;-2.100;2022-08-04T01:57:49;16.62;71.74
22069;DHT22;13887;57.196;-2.100;2022-08-04T02:00:27;16.61;71.81
22069;DHT22;13887;57.196;-2.100;2022-08-04T02:02:57;16.62;71.75
22069;DHT22;13887;57.196;-2.100;2022-08-04T02:05:25;16.59;71.83
22069;DHT22;13887;57.196;-2.100;2022-08-04T02:08:20;16.58;71.84
22069;DHT22;13887;57.196;-2.100;2022-08-04T02:11:20;16.57;71.90
22069;DHT22;13887;57.196;-2.100;2022-08-04T02:16:47;16.56;71.89
22069;DHT22;13887;57.196;-2.100;2022-08-04T02:19:45;16.55;71.95
22069;DHT22;13887;57.196;-2.100;2022-08-04T02:22:21;16.52;71.99
22069;DHT22;13887;57.196;-2.100;2022-08-04T02:24:49;16.51;71.95
22069;DHT22;13887;57.196;-2.100;2022-08-04T02:27:24;16.48;72.03
22069;DHT22;13887;57.196;-2.100;2022-08-04T02:30:13;16.50;71.96
22069;DHT22;13887;57.196;-2.100;2022-08-04T02:32:46;16.50;71.75
22069;DHT22;13887;57.196;-2.100;2022-08-04T02:35:40;16.51;71.86
22069;DHT22;13887;57.196;-2.100;2022-08-04T02:38:20;16.52;71.87
22069;DHT22;13887;57.196;-2.100;2022-08-04T02:40:53;16.51;71.87
22069;DHT22;13887;57.196;-2.100;2022-08-04T02:43:26;16.48;72.02
22069;DHT22;13887;57.196;-2.100;2022-08-04T02:46:19;16.49;72.14
22069;DHT22;13887;57.196;-2.100;2022-08-04T02:48:47;16.46;72.20
22069;DHT22;13887;57.196;-2.100;2022-08-04T02:51:16;16.47;72.26
22069;DHT22;13887;57.196;-2.100;2022-08-04T02:53:43;16.46;72.41
22069;DHT22;13887;57.196;-2.100;2022-08-04T02:56:10;16.46;72.26
22069;DHT22;13887;57.196;-2.100;2022-08-04T02:58:40;16.46;72.33
22069;DHT22;13887;57.196;-2.100;2022-08-04T03:01:07;16.44;72.52
22069;DHT22;13887;57.196;-2.100;2022-08-04T03:12:24;16.40;72.55
22069;DHT22;13887;57.196;-2.100;2022-08-04T03:38:06;16.40;72.30
22069;DHT22;13887;57.196;-2.100;2022-08-04T03:51:59;16.39;72.55
22069;DHT22;13887;57.196;-2.100;2022-08-04T04:00:18;16.35;72.95
22069;DHT22;13887;57.196;-2.100;2022-08-04T04:09:22;16.34;73.03
22069;DHT22;13887;57.196;-2.100;2022-08-04T04:23:56;16.36;72.87
22069;DHT22;13887;57.196;-2.100;2022-08-04T04:27:03;16.40;72.54
22069;DHT22;13887;57.196;-2.100;2022-08-04T04:32:11;16.33;73.04
22069;DHT22;13887;57.196;-2.100;2022-08-04T04:48:14;16.34;73.32
22069;DHT22;13887;57.196;-2.100;2022-08-04T04:51:06;16.34;73.32
22069;DHT22;13887;57.196;-2.100;2022-08-04T04:57:13;16.33;72.92
22069;DHT22;13887;57.196;-2.100;2022-08-04T04:59:52;16.33;73.05
22069;DHT22;13887;57.196;-2.100;2022-08-04T05:05:29;16.31;73.06
22069;DHT22;13887;57.196;-2.100;2022-08-04T05:13:52;16.30;72.89
22069;DHT22;13887;57.196;-2.100;2022-08-04T05:16:45;16.29;72.96
22069;DHT22;13887;57.196;-2.100;2022-08-04T05:24:09;16.26;73.12
22069;DHT22;13887;57.196;-2.100;2022-08-04T05:26:40;16.27;73.10
22069;DHT22;13887;57.196;-2.100;2022-08-04T05:29:15;16.26;73.00
22069;DHT22;13887;57.196;-2.100;2022-08-04T05:31:50;16.25;73.00
22069;DHT22;13887;57.196;-2.100;2022-08-04T05:34:23;16.25;73.02
22069;DHT22;13887;57.196;-2.100;2022-08-04T05:36:56;16.25;72.96
22069;DHT22;13887;57.196;-2.100;2022-08-04T05:39:28;16.25;73.00
22069;DHT22;13887;57.196;-2.100;2022-08-04T05:42:00;16.25;73.06
22069;DHT22;13887;57.196;-2.100;2022-08-04T05:44:31;16.24;73.34
22069;DHT22;13887;57.196;-2.100;2022-08-04T05:46:58;16.24;73.19
22069;DHT22;13887;57.196;-2.100;2022-08-04T05:49:28;16.19;73.28
22069;DHT22;13887;57.196;-2.100;2022-08-04T05:51:57;16.20;73.41
22069;DHT22;13887;57.196;-2.100;2022-08-04T05:54:25;16.16;73.57
22069;DHT22;13887;57.196;-2.100;2022-08-04T05:56:53;16.17;73.67
22069;DHT22;13887;57.196;-2.100;2022-08-04T05:59:20;16.15;73.64
22069;DHT22;13887;57.196;-2.100;2022-08-04T06:01:55;16.15;73.60
22069;DHT22;13887;57.196;-2.100;2022-08-04T06:04:27;16.15;73.51
22069;DHT22;13887;57.196;-2.100;2022-08-04T06:06:56;16.14;73.65
22069;DHT22;13887;57.196;-2.100;2022-08-04T06:09:22;16.12;73.93
22069;DHT22;13887;57.196;-2.100;2022-08-04T06:11:49;16.13;73.61
22069;DHT22;13887;57.196;-2.100;2022-08-04T06:14:38;16.14;73.77
22069;DHT22;13887;57.196;-2.100;2022-08-04T06:17:06;16.13;73.78
22069;DHT22;13887;57.196;-2.100;2022-08-04T06:19:54;16.14;73.64
22069;DHT22;13887;57.196;-2.100;2022-08-04T06:22:44;16.14;73.73
22069;DHT22;13887;57.196;-2.100;2022-08-04T06:25:16;16.14;73.77
22069;DHT22;13887;57.196;-2.100;2022-08-04T06:27:43;16.13;73.82
22069;DHT22;13887;57.196;-2.100;2022-08-04T06:30:09;16.15;73.87
22069;DHT22;13887;57.196;-2.100;2022-08-04T06:32:41;16.14;73.92
22069;DHT22;13887;57.196;-2.100;2022-08-04T06:35:15;16.14;74.53
22069;DHT22;13887;57.196;-2.100;2022-08-04T06:37:45;15.31;80.30
22069;DHT22;13887;57.196;-2.100;2022-08-04T06:40:14;15.68;77.39
22069;DHT22;13887;57.196;-2.100;2022-08-04T06:43:02;15.88;76.44
22069;DHT22;13887;57.196;-2.100;2022-08-04T06:45:30;15.97;75.67
22069;DHT22;13887;57.196;-2.100;2022-08-04T06:47:57;16.04;75.08
22069;DHT22;13887;57.196;-2.100;2022-08-04T06:50:25;16.03;74.78
22069;DHT22;13887;57.196;-2.100;2022-08-04T06:53:12;16.02;75.14
22069;DHT22;13887;57.196;-2.100;2022-08-04T06:55:41;16.05;74.72
22069;DHT22;13887;57.196;-2.100;2022-08-04T06:58:09;16.04;74.70
22069;DHT22;13887;57.196;-2.100;2022-08-04T07:00:37;16.04;74.78
22069;DHT22;13887;57.196;-2.100;2022-08-04T07:03:04;16.05;74.61
22069;DHT22;13887;57.196;-2.100;2022-08-04T07:05:32;16.05;74.69
22069;DHT22;13887;57.196;-2.100;2022-08-04T07:07:59;16.07;74.56
22069;DHT22;13887;57.196;-2.100;2022-08-04T07:10:27;16.10;74.47
22069;DHT22;13887;57.196;-2.100;2022-08-04T07:12:58;16.08;74.48
22069;DHT22;13887;57.196;-2.100;2022-08-04T07:15:25;16.10;74.47
22069;DHT22;13887;57.196;-2.100;2022-08-04T07:17:53;16.07;74.55
22069;DHT22;13887;57.196;-2.100;2022-08-04T07:20:21;16.08;74.62
22069;DHT22;13887;57.196;-2.100;2022-08-04T07:23:03;16.08;74.47
22069;DHT22;13887;57.196;-2.100;2022-08-04T07:25:30;16.10;74.44
22069;DHT22;13887;57.196;-2.100;2022-08-04T07:28:19;16.08;74.34
22069;DHT22;13887;57.196;-2.100;2022-08-04T07:30:47;16.06;74.44
22069;DHT22;13887;57.196;-2.100;2022-08-04T07:33:15;16.05;74.32
22069;DHT22;13887;57.196;-2.100;2022-08-04T07:35:43;16.10;74.19
22069;DHT22;13887;57.196;-2.100;2022-08-04T07:38:29;16.08;74.18
22069;DHT22;13887;57.196;-2.100;2022-08-04T07:40:56;16.08;74.20
22069;DHT22;13887;57.196;-2.100;2022-08-04T07:43:22;16.08;74.12
22069;DHT22;13887;57.196;-2.100;2022-08-04T07:45:48;16.10;73.96
22069;DHT22;13887;57.196;-2.100;2022-08-04T07:48:15;16.08;74.22
22069;DHT22;13887;57.196;-2.100;2022-08-04T07:50:43;16.08;74.09
22069;DHT22;13887;57.196;-2.100;2022-08-04T07:53:11;16.08;74.15
22069;DHT22;13887;57.196;-2.100;2022-08-04T07:55:59;16.13;74.12
22069;DHT22;13887;57.196;-2.100;2022-08-04T07:58:26;16.15;74.02
22069;DHT22;13887;57.196;-2.100;2022-08-04T08:00:56;16.15;73.86
22069;DHT22;13887;57.196;-2.100;2022-08-04T08:03:23;16.10;73.91
22069;DHT22;13887;57.196;-2.100;2022-08-04T08:05:50;16.12;74.05
22069;DHT22;13887;57.196;-2.100;2022-08-04T08:08:38;16.13;74.04
22069;DHT22;13887;57.196;-2.100;2022-08-04T08:11:07;16.13;73.91
22069;DHT22;13887;57.196;-2.100;2022-08-04T08:13:35;16.15;73.80
22069;DHT22;13887;57.196;-2.100;2022-08-04T08:16:02;16.17;73.66
22069;DHT22;13887;57.196;-2.100;2022-08-04T08:18:29;16.16;73.78
22069;DHT22;13887;57.196;-2.100;2022-08-04T08:20:56;16.16;73.64
22069;DHT22;13887;57.196;-2.100;2022-08-04T08:23:23;16.13;73.41
22069;DHT22;13887;57.196;-2.100;2022-08-04T08:25:50;16.14;73.61
22069;DHT22;13887;57.196;-2.100;2022-08-04T08:28:17;16.15;73.57
22069;DHT22;13887;57.196;-2.100;2022-08-04T08:30:43;16.14;73.57
22069;DHT22;13887;57.196;-2.100;2022-08-04T08:33:12;16.16;73.51
22069;DHT22;13887;57.196;-2.100;2022-08-04T08:35:50;16.16;73.48
22069;DHT22;13887;57.196;-2.100;2022-08-04T08:44:09;16.13;73.19
22069;DHT22;13887;57.196;-2.100;2022-08-04T08:55:44;16.14;73.06
22069;DHT22;13887;57.196;-2.100;2022-08-04T09:01:20;16.10;72.79
22069;DHT22;13887;57.196;-2.100;2022-08-04T09:04:08;16.11;72.63
22069;DHT22;13887;57.196;-2.100;2022-08-04T09:12:35;16.15;72.71
22069;DHT22;13887;57.196;-2.100;2022-08-04T09:15:06;16.10;72.35
22069;DHT22;13887;57.196;-2.100;2022-08-04T09:20:44;16.12;72.15
22069;DHT22;13887;57.196;-2.100;2022-08-04T09:29:06;16.11;72.25
22069;DHT22;13887;57.196;-2.100;2022-08-04T09:31:39;16.13;72.12
22069;DHT22;13887;57.196;-2.100;2022-08-04T09:40:33;16.07;71.98
22069;DHT22;13887;57.196;-2.100;2022-08-04T09:46:46;16.05;71.58
22069;DHT22;13887;57.196;-2.100;2022-08-04T09:49:45;16.07;71.31
22069;DHT22;13887;57.196;-2.100;2022-08-04T09:52:26;16.11;71.40
22069;DHT22;13887;57.196;-2.100;2022-08-04T10:00:16;16.20;70.39
22069;DHT22;13887;57.196;-2.100;2022-08-04T10:03:05;16.21;70.35
22069;DHT22;13887;57.196;-2.100;2022-08-04T10:06:05;16.26;70.16
22069;DHT22;13887;57.196;-2.100;2022-08-04T10:26:32;16.10;68.92
22069;DHT22;13887;57.196;-2.100;2022-08-04T10:29:13;16.10;68.78
22069;DHT22;13887;57.196;-2.100;2022-08-04T10:31:47;16.12;68.49
22069;DHT22;13887;57.196;-2.100;2022-08-04T10:34:19;16.14;67.94
22069;DHT22;13887;57.196;-2.100;2022-08-04T10:37:02;16.15;67.82
22069;DHT22;13887;57.196;-2.100;2022-08-04T10:39:55;16.18;67.47
22069;DHT22;13887;57.196;-2.100;2022-08-04T10:42:52;16.18;67.48
22069;DHT22;13887;57.196;-2.100;2022-08-04T10:45:25;16.18;67.25
22069;DHT22;13887;57.196;-2.100;2022-08-04T10:47:58;16.18;67.45
22069;DHT22;13887;57.196;-2.100;2022-08-04T10:50:28;16.17;67.15
22069;DHT22;13887;57.196;-2.100;2022-08-04T10:52:59;16.17;67.52
22069;DHT22;13887;57.196;-2.100;2022-08-04T10:55:41;16.16;67.72
22069;DHT22;13887;57.196;-2.100;2022-08-04T10:58:38;16.18;67.48
22069;DHT22;13887;57.196;-2.100;2022-08-04T11:01:36;16.19;66.75
22069;DHT22;13887;57.196;-2.100;2022-08-04T11:06:54;16.17;66.47
22069;DHT22;13887;57.196;-2.100;2022-08-04T11:09:21;16.25;66.53
22069;DHT22;13887;57.196;-2.100;2022-08-04T11:12:03;16.27;66.72
22069;DHT22;13887;57.196;-2.100;2022-08-04T11:14:49;16.29;66.25
22069;DHT22;13887;57.196;-2.100;2022-08-04T11:17:23;16.30;66.03
22069;DHT22;13887;57.196;-2.100;2022-08-04T11:23:05;16.29;65.08
22069;DHT22;13887;57.196;-2.100;2022-08-04T11:26:14;16.29;64.90
22069;DHT22;13887;57.196;-2.100;2022-08-04T11:29:16;16.31;64.34
22069;DHT22;13887;57.196;-2.100;2022-08-04T11:31:48;16.31;64.63
22069;DHT22;13887;57.196;-2.100;2022-08-04T11:34:25;16.32;64.85
22069;DHT22;13887;57.196;-2.100;2022-08-04T11:37:11;16.34;65.23
22069;DHT22;13887;57.196;-2.100;2022-08-04T11:39:52;16.37;64.72
22069;DHT22;13887;57.196;-2.100;2022-08-04T11:42:27;16.40;63.73
22069;DHT22;13887;57.196;-2.100;2022-08-04T11:45:23;16.40;63.58
22069;DHT22;13887;57.196;-2.100;2022-08-04T11:47:57;16.41;63.41
22069;DHT22;13887;57.196;-2.100;2022-08-04T11:50:38;16.42;63.92
22069;DHT22;13887;57.196;-2.100;2022-08-04T11:53:10;16.40;63.69
22069;DHT22;13887;57.196;-2.100;2022-08-04T11:55:40;16.37;63.99
22069;DHT22;13887;57.196;-2.100;2022-08-04T11:58:27;16.34;64.17
22069;DHT22;13887;57.196;-2.100;2022-08-04T12:01:10;16.32;64.64
22069;DHT22;13887;57.196;-2.100;2022-08-04T12:10:08;16.34;65.11
22069;DHT22;13887;57.196;-2.100;2022-08-04T12:12:41;16.35;64.79
22069;DHT22;13887;57.196;-2.100;2022-08-04T12:20:49;16.36;64.48
22069;DHT22;13887;57.196;-2.100;2022-08-04T12:23:25;16.37;64.21
22069;DHT22;13887;57.196;-2.100;2022-08-04T12:25:57;16.41;64.86
22069;DHT22;13887;57.196;-2.100;2022-08-04T12:28:30;16.41;64.40
22069;DHT22;13887;57.196;-2.100;2022-08-04T12:31:25;16.45;64.63
22069;DHT22;13887;57.196;-2.100;2022-08-04T12:36:44;16.48;63.56
22069;DHT22;13887;57.196;-2.100;2022-08-04T12:39:18;16.49;64.08
22069;DHT22;13887;57.196;-2.100;2022-08-04T12:44:36;16.51;62.93
22069;DHT22;13887;57.196;-2.100;2022-08-04T12:47:08;16.47;62.53
22069;DHT22;13887;57.196;-2.100;2022-08-04T12:49:59;16.49;61.71
22069;DHT22;13887;57.196;-2.100;2022-08-04T12:52:33;16.52;61.73
22069;DHT22;13887;57.196;-2.100;2022-08-04T12:55:28;16.57;61.38
22069;DHT22;13887;57.196;-2.100;2022-08-04T12:57:55;16.58;61.02
22069;DHT22;13887;57.196;-2.100;2022-08-04T13:00:41;16.64;61.76
22069;DHT22;13887;57.196;-2.100;2022-08-04T13:03:14;16.67;61.50
22069;DHT22;13887;57.196;-2.100;2022-08-04T13:05:44;16.71;62.12
22069;DHT22;13887;57.196;-2.100;2022-08-04T13:08:12;16.73;63.19
22069;DHT22;13887;57.196;-2.100;2022-08-04T13:10:44;16.71;62.62
22069;DHT22;13887;57.196;-2.100;2022-08-04T13:13:14;16.71;62.89
22069;DHT22;13887;57.196;-2.100;2022-08-04T13:15:41;16.73;64.03
22069;DHT22;13887;57.196;-2.100;2022-08-04T13:18:13;16.74;63.82
22069;DHT22;13887;57.196;-2.100;2022-08-04T13:20:42;16.75;63.99
22069;DHT22;13887;57.196;-2.100;2022-08-04T13:23:14;16.74;64.25
22069;DHT22;13887;57.196;-2.100;2022-08-04T13:25:49;16.74;64.25
22069;DHT22;13887;57.196;-2.100;2022-08-04T13:28:39;16.70;64.44
22069;DHT22;13887;57.196;-2.100;2022-08-04T13:31:14;16.71;64.53
22069;DHT22;13887;57.196;-2.100;2022-08-04T13:33:45;16.73;64.61
22069;DHT22;13887;57.196;-2.100;2022-08-04T13:36:12;16.69;64.26
22069;DHT22;13887;57.196;-2.100;2022-08-04T13:38:47;16.67;64.40
22069;DHT22;13887;57.196;-2.100;2022-08-04T13:41:16;16.66;64.29
22069;DHT22;13887;57.196;-2.100;2022-08-04T13:43:45;16.65;64.00
22069;DHT22;13887;57.196;-2.100;2022-08-04T13:46:36;16.66;64.20
22069;DHT22;13887;57.196;-2.100;2022-08-04T13:49:08;16.64;64.03
22069;DHT22;13887;57.196;-2.100;2022-08-04T13:51:56;16.62;63.78
22069;DHT22;13887;57.196;-2.100;2022-08-04T13:54:26;16.65;63.85
22069;DHT22;13887;57.196;-2.100;2022-08-04T13:57:01;16.66;63.42
22069;DHT22;13887;57.196;-2.100;2022-08-04T13:59:34;16.66;63.41
22069;DHT22;13887;57.196;-2.100;2022-08-04T14:02:08;16.67;62.59
22069;DHT22;13887;57.196;-2.100;2022-08-04T14:04:50;16.69;62.68
22069;DHT22;13887;57.196;-2.100;2022-08-04T14:07:19;16.74;61.79
22069;DHT22;13887;57.196;-2.100;2022-08-04T14:09:47;16.76;61.68
22069;DHT22;13887;57.196;-2.100;2022-08-04T14:12:30;16.84;61.52
22069;DHT22;13887;57.196;-2.100;2022-08-04T14:15:32;16.84;61.12
22069;DHT22;13887;57.196;-2.100;2022-08-04T14:18:19;16.88;60.80
22069;DHT22;13887;57.196;-2.100;2022-08-04T14:26:30;16.91;61.00
22069;DHT22;13887;57.196;-2.100;2022-08-04T14:29:11;16.91;61.60
22069;DHT22;13887;57.196;-2.100;2022-08-04T14:32:00;16.89;61.19
22069;DHT22;13887;57.196;-2.100;2022-08-04T14:34:29;16.81;61.45
22069;DHT22;13887;57.196;-2.100;2022-08-04T14:37:09;16.77;61.34
22069;DHT22;13887;57.196;-2.100;2022-08-04T14:39:46;16.74;61.47
22069;DHT22;13887;57.196;-2.100;2022-08-04T14:42:46;16.77;61.58
22069;DHT22;13887;57.196;-2.100;2022-08-04T14:45:30;16.76;61.44
22069;DHT22;13887;57.196;-2.100;2022-08-04T14:47:57;16.74;62.02
22069;DHT22;13887;57.196;-2.100;2022-08-04T14:50:44;16.73;61.80
22069;DHT22;13887;57.196;-2.100;2022-08-04T14:53:18;16.75;62.25
22069;DHT22;13887;57.196;-2.100;2022-08-04T14:55:48;16.76;62.42
22069;DHT22;13887;57.196;-2.100;2022-08-04T14:58:18;16.76;62.86
22069;DHT22;13887;57.196;-2.100;2022-08-04T15:01:06;16.74;63.44
22069;DHT22;13887;57.196;-2.100;2022-08-04T15:03:42;16.74;63.95
22069;DHT22;13887;57.196;-2.100;2022-08-04T15:06:20;16.76;64.05
22069;DHT22;13887;57.196;-2.100;2022-08-04T15:08:50;16.78;64.34
22069;DHT22;13887;57.196;-2.100;2022-08-04T15:11:16;16.81;64.44
22069;DHT22;13887;57.196;-2.100;2022-08-04T15:13:53;16.81;64.81
22069;DHT22;13887;57.196;-2.100;2022-08-04T15:16:21;16.79;65.31
22069;DHT22;13887;57.196;-2.100;2022-08-04T15:18:47;16.80;65.43
22069;DHT22;13887;57.196;-2.100;2022-08-04T15:21:16;16.81;65.69
22069;DHT22;13887;57.196;-2.100;2022-08-04T15:23:42;16.80;66.17
22069;DHT22;13887;57.196;-2.100;2022-08-04T15:26:12;16.77;66.07
22069;DHT22;13887;57.196;-2.100;2022-08-04T15:28:50;16.75;65.69
22069;DHT22;13887;57.196;-2.100;2022-08-04T15:31:19;16.74;65.98
22069;DHT22;13887;57.196;-2.100;2022-08-04T15:34:08;16.75;66.16
22069;DHT22;13887;57.196;-2.100;2022-08-04T15:36:51;16.75;66.31
22069;DHT22;13887;57.196;-2.100;2022-08-04T15:39:47;16.76;66.16
22069;DHT22;13887;57.196;-2.100;2022-08-04T15:42:34;16.78;66.18
22069;DHT22;13887;57.196;-2.100;2022-08-04T15:50:31;16.85;66.44
22069;DHT22;13887;57.196;-2.100;2022-08-04T15:53:02;16.85;66.33
22069;DHT22;13887;57.196;-2.100;2022-08-04T15:55:39;16.87;66.64
22069;DHT22;13887;57.196;-2.100;2022-08-04T16:19:06;16.81;66.24
22069;DHT22;13887;57.196;-2.100;2022-08-04T16:21:46;16.82;66.48
22069;DHT22;13887;57.196;-2.100;2022-08-04T16:24:29;16.84;65.97
22069;DHT22;13887;57.196;-2.100;2022-08-04T16:27:10;16.86;65.72
22069;DHT22;13887;57.196;-2.100;2022-08-04T16:29:42;16.89;65.64
22069;DHT22;13887;57.196;-2.100;2022-08-04T16:32:20;16.89;65.72
22069;DHT22;13887;57.196;-2.100;2022-08-04T16:34:52;16.90;65.12
22069;DHT22;13887;57.196;-2.100;2022-08-04T16:37:28;16.91;65.34
22069;DHT22;13887;57.196;-2.100;2022-08-04T16:42:49;16.34;61.26
22069;DHT22;13887;57.196;-2.100;2022-08-04T16:45:17;16.44;61.57
22069;DHT22;13887;57.196;-2.100;2022-08-04T16:50:17;16.63;61.49
22069;DHT22;13887;57.196;-2.100;2022-08-04T16:52:53;16.66;61.39
22069;DHT22;13887;57.196;-2.100;2022-08-04T16:55:22;16.64;61.26
22069;DHT22;13887;57.196;-2.100;2022-08-04T16:57:50;16.64;61.50
22069;DHT22;13887;57.196;-2.100;2022-08-04T17:00:17;16.66;61.42
22069;DHT22;13887;57.196;-2.100;2022-08-04T17:02:52;16.62;60.84
22069;DHT22;13887;57.196;-2.100;2022-08-04T17:05:23;16.63;61.25
22069;DHT22;13887;57.196;-2.100;2022-08-04T17:08:06;16.57;59.83
22069;DHT22;13887;57.196;-2.100;2022-08-04T17:10:53;16.61;60.40
22069;DHT22;13887;57.196;-2.100;2022-08-04T17:13:24;16.63;60.66
22069;DHT22;13887;57.196;-2.100;2022-08-04T17:16:14;16.70;60.60
22069;DHT22;13887;57.196;-2.100;2022-08-04T17:18:46;16.74;60.63
22069;DHT22;13887;57.196;-2.100;2022-08-04T17:21:18;16.76;60.67
22069;DHT22;13887;57.196;-2.100;2022-08-04T17:23:47;16.80;60.77
22069;DHT22;13887;57.196;-2.100;2022-08-04T17:26:37;16.77;60.39
22069;DHT22;13887;57.196;-2.100;2022-08-04T17:29:07;16.75;60.43
22069;DHT22;13887;57.196;-2.100;2022-08-04T17:31:36;16.75;60.72
22069;DHT22;13887;57.196;-2.100;2022-08-04T17:34:14;16.73;60.27
22069;DHT22;13887;57.196;-2.100;2022-08-04T17:36:45;16.73;60.33
22069;DHT22;13887;57.196;-2.100;2022-08-04T17:39:17;16.74;60.53
22069;DHT22;13887;57.196;-2.100;2022-08-04T17:41:46;16.72;60.41
22069;DHT22;13887;57.196;-2.100;2022-08-04T17:44:15;16.72;60.16
22069;DHT22;13887;57.196;-2.100;2022-08-04T17:46:43;16.69;60.03
22069;DHT22;13887;57.196;-2.100;2022-08-04T17:49:22;16.70;59.99
22069;DHT22;13887;57.196;-2.100;2022-08-04T17:51:54;16.66;59.38
22069;DHT22;13887;57.196;-2.100;2022-08-04T17:54:38;16.65;59.58
22069;DHT22;13887;57.196;-2.100;2022-08-04T17:57:17;16.66;59.63
22069;DHT22;13887;57.196;-2.100;2022-08-04T17:59:56;16.67;59.70
22069;DHT22;13887;57.196;-2.100;2022-08-04T18:02:30;16.66;59.87
22069;DHT22;13887;57.196;-2.100;2022-08-04T18:05:03;16.66;59.90
22069;DHT22;13887;57.196;-2.100;2022-08-04T18:07:39;16.65;60.20
22069;DHT22;13887;57.196;-2.100;2022-08-04T18:10:39;16.63;60.57
22069;DHT22;13887;57.196;-2.100;2022-08-04T18:13:25;16.64;60.85
22069;DHT22;13887;57.196;-2.100;2022-08-04T18:16:03;16.62;60.98
22069;DHT22;13887;57.196;-2.100;2022-08-04T18:18:29;16.61;60.92
22069;DHT22;13887;57.196;-2.100;2022-08-04T18:20:56;16.34;60.84
22069;DHT22;13887;57.196;-2.100;2022-08-04T18:23:28;16.50;60.43
22069;DHT22;13887;57.196;-2.100;2022-08-04T18:25:58;16.57;60.41
22069;DHT22;13887;57.196;-2.100;2022-08-04T18:28:24;16.60;60.36
22069;DHT22;13887;57.196;-2.100;2022-08-04T18:30:54;16.59;60.60
22069;DHT22;13887;57.196;-2.100;2022-08-04T18:33:21;16.60;60.55
22069;DHT22;13887;57.196;-2.100;2022-08-04T18:36:10;16.59;60.89
22069;DHT22;13887;57.196;-2.100;2022-08-04T18:38:58;16.63;61.15
22069;DHT22;13887;57.196;-2.100;2022-08-04T18:41:39;16.64;61.29
22069;DHT22;13887;57.196;-2.100;2022-08-04T18:44:25;16.62;61.59
22069;DHT22;13887;57.196;-2.100;2022-08-04T18:46:55;16.64;61.25
22069;DHT22;13887;57.196;-2.100;2022-08-04T18:49:21;16.62;61.55
22069;DHT22;13887;57.196;-2.100;2022-08-04T18:52:09;16.63;61.52
22069;DHT22;13887;57.196;-2.100;2022-08-04T18:54:40;16.64;61.65
22069;DHT22;13887;57.196;-2.100;2022-08-04T18:57:07;16.64;61.71
22069;DHT22;13887;57.196;-2.100;2022-08-04T18:59:54;16.63;61.45
22069;DHT22;13887;57.196;-2.100;2022-08-04T19:02:22;16.59;61.65
22069;DHT22;13887;57.196;-2.100;2022-08-04T19:04:52;16.59;61.86
22069;DHT22;13887;57.196;-2.100;2022-08-04T19:07:19;16.58;61.63
22069;DHT22;13887;57.196;-2.100;2022-08-04T19:10:05;16.55;61.46
22069;DHT22;13887;57.196;-2.100;2022-08-04T19:12:32;16.49;61.95
22069;DHT22;13887;57.196;-2.100;2022-08-04T19:15:01;16.43;62.34
22069;DHT22;13887;57.196;-2.100;2022-08-04T19:17:38;16.41;62.83
22069;DHT22;13887;57.196;-2.100;2022-08-04T19:20:25;16.40;63.34
22069;DHT22;13887;57.196;-2.100;2022-08-04T19:22:53;16.36;63.68
22069;DHT22;13887;57.196;-2.100;2022-08-04T19:25:40;16.35;64.20
22069;DHT22;13887;57.196;-2.100;2022-08-04T19:28:28;16.34;64.36
22069;DHT22;13887;57.196;-2.100;2022-08-04T19:30:56;16.31;64.53
22069;DHT22;13887;57.196;-2.100;2022-08-04T19:33:23;16.04;66.48
22069;DHT22;13887;57.196;-2.100;2022-08-04T19:35:51;15.65;68.38
22069;DHT22;13887;57.196;-2.100;2022-08-04T19:38:17;15.56;68.54
22069;DHT22;13887;57.196;-2.100;2022-08-04T19:40:45;15.17;70.34
22069;DHT22;13887;57.196;-2.100;2022-08-04T19:43:18;15.57;68.98
22069;DHT22;13887;57.196;-2.100;2022-08-04T19:45:45;15.89;67.50
22069;DHT22;13887;57.196;-2.100;2022-08-04T19:48:12;16.02;66.88
22069;DHT22;13887;57.196;-2.100;2022-08-04T19:50:45;16.07;66.75
22069;DHT22;13887;57.196;-2.100;2022-08-04T19:53:11;16.11;66.63
22069;DHT22;13887;57.196;-2.100;2022-08-04T19:55:46;16.13;66.55
22069;DHT22;13887;57.196;-2.100;2022-08-04T19:58:16;16.17;66.62
22069;DHT22;13887;57.196;-2.100;2022-08-04T20:00:42;16.18;66.59
22069;DHT22;13887;57.196;-2.100;2022-08-04T20:03:16;16.17;66.62
22069;DHT22;13887;57.196;-2.100;2022-08-04T20:06:03;16.18;66.66
22069;DHT22;13887;57.196;-2.100;2022-08-04T20:08:29;16.17;66.76
22069;DHT22;13887;57.196;-2.100;2022-08-04T20:10:56;16.18;66.78
22069;DHT22;13887;57.196;-2.100;2022-08-04T20:13:23;16.18;66.81
22069;DHT22;13887;57.196;-2.100;2022-08-04T20:15:56;16.15;66.65
22069;DHT22;13887;57.196;-2.100;2022-08-04T20:18:25;16.18;66.70
22069;DHT22;13887;57.196;-2.100;2022-08-04T20:21:11;16.15;66.81
22069;DHT22;13887;57.196;-2.100;2022-08-04T20:23:50;16.16;66.85
22069;DHT22;13887;57.196;-2.100;2022-08-04T20:26:17;16.16;66.89
22069;DHT22;13887;57.196;-2.100;2022-08-04T20:28:43;16.16;66.88
22069;DHT22;13887;57.196;-2.100;2022-08-04T20:31:12;16.14;66.91
22069;DHT22;13887;57.196;-2.100;2022-08-04T20:33:44;16.15;66.91
22069;DHT22;13887;57.196;-2.100;2022-08-04T20:36:21;16.13;67.00